Time;durP1;ratioP1;P1;durP2;ratioP2;P2;SDS_P1;SDS_P2;PMS_P1;PMS_P2;Temp;Humidity;BMP_temperature;BMP_pressure;BME280_temperature;BME280_humidity;BME280_pressure;Samples;Min_cycle;Max_cycle;Signal;HPM_P1;HPM_P2
2023/11/08 00:01:26;;;;;;;23.48;3.03;;;;;;;;;;5062301;28;20082;-41
2023/11/08 00:03:54;;;;;;;22.00;2.83;;;;;;;;;;5055219;28;20025;-41
2023/11/08 00:06:21;;;;;;;27.77;3.15;;;;;;;;;;5057967;28;20029;-40
2023/11/08 00:08:51;;;;;;;19.88;3.10;;;;;;;;;;5064889;28;20040;-41
2023/11/08 00:11:20;;;;;;;23.50;2.83;;;;;;;;;;5064815;28;20379;-41
2023/11/08 00:13:48;;;;;;;17.48;2.67;;;;;;;;;;5052516;28;20466;-42
2023/11/08 00:16:17;;;;;;;17.58;2.40;;;;;;;;;;5070158;28;20032;-40
2023/11/08 00:18:44;;;;;;;22.65;2.90;;;;;;;;;;5065601;28;20043;-39
2023/11/08 00:21:12;;;;;;;21.33;2.85;;;;;;;;;;5058114;28;20043;-40
2023/11/08 00:23:42;;;;;;;17.98;3.08;;;;;;;;;;5064394;28;20028;-40
2023/11/08 00:26:09;;;;;;;26.85;3.47;;;;;;;;;;5069320;28;20021;-40
2023/11/08 00:28:36;;;;;;;33.85;3.78;;;;;;;;;;5056589;28;20090;-39
2023/11/08 00:31:03;;;;;;;34.58;3.65;;;;;;;;;;5052249;28;20041;-49
2023/11/08 00:33:30;;;;;;;30.95;3.95;;;;;;;;;;5051892;28;20047;-38
2023/11/08 00:35:57;;;;;;;29.65;3.15;;;;;;;;;;5055982;28;20125;-45
2023/11/08 00:38:24;;;;;;;29.20;3.45;;;;;;;;;;5066032;28;20029;-40
2023/11/08 00:40:51;;;;;;;29.05;2.88;;;;;;;;;;5057199;28;20049;-40
2023/11/08 00:43:18;;;;;;;22.25;3.17;;;;;;;;;;5063475;28;20498;-38
2023/11/08 00:45:45;;;;;;;25.08;2.95;;;;;;;;;;5063395;28;20108;-38
2023/11/08 00:48:12;;;;;;;22.17;3.67;;;;;;;;;;5066396;28;20036;-38
2023/11/08 00:50:39;;;;;;;22.15;3.13;;;;;;;;;;5053596;28;20457;-38
2023/11/08 00:53:06;;;;;;;13.15;3.05;;;;;;;;;;5061282;28;20029;-38
2023/11/08 00:55:33;;;;;;;33.15;5.22;;;;;;;;;;5063759;28;20032;-37
2023/11/08 00:58:00;;;;;;;35.33;6.53;;;;;;;;;;5062140;28;20031;-37
2023/11/08 01:00:27;;;;;;;36.63;6.45;;;;;;;;;;5059476;28;20090;-37
2023/11/08 01:02:54;;;;;;;31.63;7.30;;;;;;;;;;5060420;28;20036;-37
2023/11/08 01:05:21;;;;;;;49.92;13.50;;;;;;;;;;5063664;28;20035;-37
2023/11/08 01:07:48;;;;;;;59.25;15.55;;;;;;;;;;5040386;28;20433;-37
2023/11/08 01:10:16;;;;;;;48.13;14.07;;;;;;;;;;5059664;28;20020;-37
2023/11/08 01:12:44;;;;;;;44.05;11.38;;;;;;;;;;5064218;28;20049;-37
2023/11/08 01:15:11;;;;;;;38.58;10.38;;;;;;;;;;5061021;28;20101;-37
2023/11/08 01:17:38;;;;;;;41.60;10.90;;;;;;;;;;5062966;28;20087;-37
2023/11/08 01:20:05;;;;;;;45.15;9.98;;;;;;;;;;5060810;28;20033;-37
2023/11/08 01:22:32;;;;;;;39.67;11.15;;;;;;;;;;5062930;28;20552;-38
2023/11/08 01:24:59;;;;;;;40.38;10.10;;;;;;;;;;5067455;28;20020;-37
2023/11/08 01:27:26;;;;;;;27.70;8.30;;;;;;;;;;5062405;28;20115;-37
2023/11/08 01:29:53;;;;;;;35.97;8.50;;;;;;;;;;5066737;28;20086;-37
2023/11/08 01:32:20;;;;;;;32.58;8.73;;;;;;;;;;5063000;28;20052;-37
2023/11/08 01:34:47;;;;;;;34.40;8.82;;;;;;;;;;5060989;28;20025;-37
2023/11/08 01:37:14;;;;;;;29.92;8.18;;;;;;;;;;5057411;28;20110;-37
2023/11/08 01:39:41;;;;;;;38.20;8.00;;;;;;;;;;5059828;28;20469;-37
2023/11/08 01:42:09;;;;;;;29.05;7.20;;;;;;;;;;5061637;28;20082;-37
2023/11/08 01:44:36;;;;;;;33.47;7.90;;;;;;;;;;5061069;28;20027;-37
2023/11/08 01:47:03;;;;;;;32.85;8.73;;;;;;;;;;5066897;28;20032;-37
2023/11/08 01:49:31;;;;;;;36.38;8.32;;;;;;;;;;5057875;28;20086;-35
2023/11/08 01:52:00;;;;;;;33.08;8.25;;;;;;;;;;5062361;28;20430;-36
2023/11/08 01:54:27;;;;;;;36.47;7.95;;;;;;;;;;5071455;28;20562;-36
2023/11/08 01:56:56;;;;;;;29.85;7.55;;;;;;;;;;5071923;28;20044;-36
2023/11/08 01:59:25;;;;;;;30.13;7.78;;;;;;;;;;5064165;28;20090;-37
2023/11/08 02:01:57;;;;;;;27.42;8.07;;;;;;;;;;5065409;28;20483;-37
2023/11/08 02:04:25;;;;;;;29.40;7.45;;;;;;;;;;5069037;28;20028;-37
2023/11/08 02:06:53;;;;;;;29.90;8.45;;;;;;;;;;5066145;28;20032;-36
2023/11/08 02:09:20;;;;;;;30.35;7.07;;;;;;;;;;5070772;28;20067;-37
2023/11/08 02:11:47;;;;;;;31.50;8.23;;;;;;;;;;5065713;28;20052;-37
2023/11/08 02:14:14;;;;;;;28.50;8.02;;;;;;;;;;5053228;28;20787;-37
2023/11/08 02:16:41;;;;;;;25.88;7.75;;;;;;;;;;5071105;28;20020;-37
2023/11/08 02:19:09;;;;;;;25.55;6.85;;;;;;;;;;5068473;28;20025;-37
2023/11/08 02:21:36;;;;;;;25.83;7.05;;;;;;;;;;5071660;28;20020;-36
2023/11/08 02:24:18;;;;;;;25.05;7.05;;;;;;;;;;5071521;28;20055;-37
2023/11/08 02:26:49;;;;;;;28.15;7.43;;;;;;;;;;5071047;28;20058;-37
2023/11/08 02:29:17;;;;;;;29.33;7.30;;;;;;;;;;5071339;28;20056;-37
2023/11/08 02:31:49;;;;;;;23.48;6.45;;;;;;;;;;5071227;28;20032;-37
2023/11/08 02:34:17;;;;;;;23.35;6.05;;;;;;;;;;5066404;28;20044;-37
2023/11/08 02:36:44;;;;;;;22.00;5.35;;;;;;;;;;5070721;28;20032;-36
2023/11/08 02:39:12;;;;;;;25.33;6.82;;;;;;;;;;5071244;28;20024;-37
2023/11/08 02:41:39;;;;;;;22.45;6.47;;;;;;;;;;5071427;28;20025;-37
2023/11/08 02:44:08;;;;;;;22.20;6.43;;;;;;;;;;5071462;28;20024;-36
2023/11/08 02:46:36;;;;;;;27.08;6.90;;;;;;;;;;5071684;28;20040;-36
2023/11/08 02:49:03;;;;;;;21.23;6.00;;;;;;;;;;5071961;28;20052;-36
2023/11/08 02:51:31;;;;;;;24.58;5.70;;;;;;;;;;5071767;28;20052;-36
2023/11/08 02:53:58;;;;;;;22.88;6.35;;;;;;;;;;5071889;28;20039;-36
2023/11/08 02:56:26;;;;;;;23.08;5.72;;;;;;;;;;5071673;28;20120;-36
2023/11/08 02:58:53;;;;;;;21.05;5.70;;;;;;;;;;5071803;28;20028;-36
2023/11/08 03:01:24;;;;;;;21.60;5.80;;;;;;;;;;5071690;28;20067;-36
2023/11/08 03:03:51;;;;;;;18.80;5.25;;;;;;;;;;5071731;28;20032;-36
2023/11/08 03:06:21;;;;;;;16.10;4.90;;;;;;;;;;5071642;28;20024;-36
2023/11/08 03:08:49;;;;;;;18.92;4.35;;;;;;;;;;5051718;28;20025;-36
2023/11/08 03:11:16;;;;;;;15.68;5.40;;;;;;;;;;5051365;28;20152;-36
2023/11/08 03:13:42;;;;;;;13.25;4.25;;;;;;;;;;5051626;28;20095;-36
2023/11/08 03:16:09;;;;;;;13.93;4.15;;;;;;;;;;5051481;28;20021;-36
2023/11/08 03:18:36;;;;;;;15.02;4.22;;;;;;;;;;5051579;28;20045;-36
2023/11/08 03:21:04;;;;;;;12.68;3.80;;;;;;;;;;5051463;28;20072;-36
2023/11/08 03:23:30;;;;;;;15.20;4.00;;;;;;;;;;5051513;28;20371;-36
2023/11/08 03:25:57;;;;;;;12.98;3.72;;;;;;;;;;5051480;28;20748;-36
2023/11/08 03:28:24;;;;;;;12.10;3.88;;;;;;;;;;5051291;28;20025;-36
2023/11/08 03:30:51;;;;;;;12.32;3.50;;;;;;;;;;5051483;28;20037;-37
2023/11/08 03:33:18;;;;;;;15.05;3.72;;;;;;;;;;5051360;28;20025;-36
2023/11/08 03:35:45;;;;;;;10.30;3.25;;;;;;;;;;5051368;28;20412;-36
2023/11/08 03:38:12;;;;;;;11.68;3.38;;;;;;;;;;5051298;28;20114;-36
2023/11/08 03:40:40;;;;;;;16.42;3.85;;;;;;;;;;5051284;28;20037;-36
2023/11/08 03:43:07;;;;;;;12.25;3.00;;;;;;;;;;5051222;28;20037;-36
2023/11/08 03:45:35;;;;;;;9.43;2.83;;;;;;;;;;5051312;28;20029;-36
2023/11/08 03:48:02;;;;;;;12.40;2.70;;;;;;;;;;5054871;28;20029;-36
2023/11/08 03:50:29;;;;;;;12.25;2.80;;;;;;;;;;5055278;28;20036;-36
2023/11/08 03:52:56;;;;;;;16.42;2.97;;;;;;;;;;5055213;28;20025;-36
2023/11/08 03:55:23;;;;;;;8.32;2.70;;;;;;;;;;5055071;28;20037;-36
2023/11/08 03:57:50;;;;;;;8.68;2.80;;;;;;;;;;5055022;28;20087;-36
2023/11/08 04:00:18;;;;;;;10.38;3.20;;;;;;;;;;5055037;28;20036;-36
2023/11/08 04:02:45;;;;;;;7.93;2.83;;;;;;;;;;5054953;28;20041;-36
2023/11/08 04:05:12;;;;;;;11.63;2.65;;;;;;;;;;5054949;28;20025;-36
2023/11/08 04:07:39;;;;;;;12.80;3.17;;;;;;;;;;5054892;28;20025;-36
2023/11/08 04:10:06;;;;;;;8.98;2.90;;;;;;;;;;5054922;28;20025;-36
2023/11/08 04:12:33;;;;;;;11.98;3.40;;;;;;;;;;5054742;28;20107;-36
2023/11/08 04:15:00;;;;;;;11.18;2.60;;;;;;;;;;5054830;28;20045;-36
2023/11/08 04:17:27;;;;;;;8.00;2.60;;;;;;;;;;5054680;28;20086;-36
2023/11/08 04:19:55;;;;;;;12.68;3.00;;;;;;;;;;5054642;28;20037;-36
2023/11/08 04:22:22;;;;;;;9.98;2.92;;;;;;;;;;5054682;28;20060;-36
2023/11/08 04:24:49;;;;;;;8.40;2.97;;;;;;;;;;5054659;28;20039;-36
2023/11/08 04:27:16;;;;;;;9.80;2.95;;;;;;;;;;5054508;28;20029;-36
2023/11/08 04:29:42;;;;;;;8.38;2.70;;;;;;;;;;5054523;28;20045;-36
2023/11/08 04:32:09;;;;;;;6.45;2.28;;;;;;;;;;5054505;28;20039;-36
2023/11/08 04:34:36;;;;;;;6.82;2.40;;;;;;;;;;5036563;28;20032;-37
2023/11/08 04:37:06;;;;;;;6.68;2.38;;;;;;;;;;5054414;28;20036;-36
2023/11/08 04:39:33;;;;;;;9.25;2.65;;;;;;;;;;5054082;28;20033;-36
2023/11/08 04:42:00;;;;;;;6.72;2.28;;;;;;;;;;5036382;28;20032;-36
2023/11/08 04:44:27;;;;;;;8.65;2.60;;;;;;;;;;5054284;28;20544;-36
2023/11/08 04:46:54;;;;;;;7.78;2.17;;;;;;;;;;5054166;28;20112;-36
2023/11/08 04:49:21;;;;;;;6.40;2.13;;;;;;;;;;5054217;28;20546;-37
2023/11/08 04:51:48;;;;;;;6.70;2.70;;;;;;;;;;5054061;28;20033;-36
2023/11/08 04:54:15;;;;;;;10.05;2.95;;;;;;;;;;5054050;28;20033;-36
2023/11/08 04:56:43;;;;;;;6.43;2.28;;;;;;;;;;5053890;28;20029;-36
2023/11/08 04:59:12;;;;;;;8.93;2.25;;;;;;;;;;5053275;28;20025;-36
2023/11/08 05:01:41;;;;;;;7.20;2.33;;;;;;;;;;5053855;28;20115;-36
2023/11/08 05:04:08;;;;;;;7.43;2.05;;;;;;;;;;5053749;28;20166;-36
2023/11/08 05:06:35;;;;;;;6.82;2.00;;;;;;;;;;5053809;28;20104;-36
2023/11/08 05:09:02;;;;;;;7.25;2.05;;;;;;;;;;5053788;28;20029;-36
2023/11/08 05:11:29;;;;;;;9.13;2.20;;;;;;;;;;5053602;28;20510;-37
2023/11/08 05:13:56;;;;;;;7.20;2.05;;;;;;;;;;5053789;28;20029;-37
2023/11/08 05:16:23;;;;;;;6.38;2.08;;;;;;;;;;5053592;28;20021;-36
2023/11/08 05:18:51;;;;;;;5.38;2.00;;;;;;;;;;5053697;28;20036;-36
2023/11/08 05:21:18;;;;;;;7.10;2.10;;;;;;;;;;5053611;28;20140;-36
2023/11/08 05:23:45;;;;;;;8.40;2.33;;;;;;;;;;5053630;28;20029;-37
2023/11/08 05:26:12;;;;;;;7.10;1.88;;;;;;;;;;5053453;28;20036;-37
2023/11/08 05:28:39;;;;;;;7.45;1.98;;;;;;;;;;5053498;28;20107;-36
2023/11/08 05:31:06;;;;;;;4.35;1.88;;;;;;;;;;5053520;28;20028;-37
2023/11/08 05:33:32;;;;;;;5.95;1.98;;;;;;;;;;5053442;28;20123;-36
2023/11/08 05:36:00;;;;;;;9.07;2.22;;;;;;;;;;5053307;28;20111;-37
2023/11/08 05:38:26;;;;;;;6.65;2.17;;;;;;;;;;5053290;28;20103;-36
2023/11/08 05:40:53;;;;;;;7.00;1.83;;;;;;;;;;5053157;28;20033;-36
2023/11/08 05:43:21;;;;;;;5.63;2.00;;;;;;;;;;5053278;28;20116;-36
2023/11/08 05:45:48;;;;;;;4.82;1.70;;;;;;;;;;5053202;28;20032;-37
2023/11/08 05:48:15;;;;;;;5.55;1.95;;;;;;;;;;5052987;28;20032;-37
2023/11/08 05:50:43;;;;;;;4.82;1.80;;;;;;;;;;5035114;28;20037;-37
2023/11/08 05:53:13;;;;;;;4.45;1.65;;;;;;;;;;5052865;28;20071;-37
2023/11/08 05:55:41;;;;;;;4.22;1.52;;;;;;;;;;5052797;28;20033;-36
2023/11/08 05:58:08;;;;;;;3.55;1.45;;;;;;;;;;5052818;28;20025;-36
2023/11/08 06:00:35;;;;;;;4.55;1.58;;;;;;;;;;5052821;28;20063;-37
2023/11/08 06:03:02;;;;;;;6.15;1.80;;;;;;;;;;5071656;28;20024;-37
2023/11/08 06:05:29;;;;;;;4.60;1.73;;;;;;;;;;5072766;28;20074;-37
2023/11/08 06:07:58;;;;;;;5.35;1.70;;;;;;;;;;5072558;28;20036;-37
2023/11/08 06:10:25;;;;;;;3.40;1.67;;;;;;;;;;5071717;28;20508;-37
2023/11/08 06:12:52;;;;;;;4.57;1.42;;;;;;;;;;5072439;28;20067;-36
2023/11/08 06:15:19;;;;;;;4.57;1.50;;;;;;;;;;5072564;28;20490;-36
2023/11/08 06:17:47;;;;;;;4.57;1.58;;;;;;;;;;5072500;28;20048;-36
2023/11/08 06:20:14;;;;;;;4.25;1.65;;;;;;;;;;5072320;28;20047;-36
2023/11/08 06:22:41;;;;;;;4.57;1.52;;;;;;;;;;5072464;28;20118;-36
2023/11/08 06:25:08;;;;;;;4.97;1.55;;;;;;;;;;5072360;28;20039;-36
2023/11/08 06:27:36;;;;;;;4.93;1.50;;;;;;;;;;5072170;28;20368;-36
2023/11/08 06:30:03;;;;;;;3.63;1.48;;;;;;;;;;5072327;28;20376;-36
2023/11/08 06:32:30;;;;;;;3.22;1.40;;;;;;;;;;5072310;28;20386;-37
2023/11/08 06:35:00;;;;;;;4.82;1.30;;;;;;;;;;5072209;28;20055;-37
2023/11/08 06:37:28;;;;;;;3.63;1.50;;;;;;;;;;5071963;28;20036;-36
2023/11/08 06:39:55;;;;;;;2.92;1.27;;;;;;;;;;5072037;28;20024;-37
2023/11/08 06:42:22;;;;;;;3.50;1.50;;;;;;;;;;5072023;28;20398;-37
2023/11/08 06:44:49;;;;;;;2.70;1.48;;;;;;;;;;5072121;28;20087;-36
2023/11/08 06:47:17;;;;;;;2.90;1.38;;;;;;;;;;5071965;28;20556;-37
2023/11/08 06:49:44;;;;;;;4.28;1.52;;;;;;;;;;5071952;28;20032;-36
2023/11/08 06:52:11;;;;;;;3.00;1.45;;;;;;;;;;5071997;28;20017;-37
2023/11/08 06:54:41;;;;;;;3.17;1.08;;;;;;;;;;5072047;28;20020;-36
2023/11/08 06:57:09;;;;;;;3.30;1.30;;;;;;;;;;5071757;28;20075;-36
2023/11/08 06:59:36;;;;;;;3.70;1.33;;;;;;;;;;5071845;28;20033;-37
2023/11/08 07:02:04;;;;;;;4.35;1.65;;;;;;;;;;5071919;28;20028;-36
2023/11/08 07:04:31;;;;;;;2.45;1.30;;;;;;;;;;5071832;28;20017;-36
2023/11/08 07:06:58;;;;;;;4.72;1.40;;;;;;;;;;5071727;28;20040;-36
2023/11/08 07:09:24;;;;;;;3.22;1.33;;;;;;;;;;5071832;28;20021;-36
2023/11/08 07:11:52;;;;;;;3.63;1.33;;;;;;;;;;5071492;28;20032;-36
2023/11/08 07:14:19;;;;;;;2.67;1.42;;;;;;;;;;5071656;28;20401;-36
2023/11/08 07:16:46;;;;;;;2.50;1.20;;;;;;;;;;5071585;28;20367;-36
2023/11/08 07:19:13;;;;;;;2.55;1.15;;;;;;;;;;5071793;28;20035;-36
2023/11/08 07:21:41;;;;;;;4.28;1.17;;;;;;;;;;5071340;28;20390;-36
2023/11/08 07:24:08;;;;;;;2.78;1.13;;;;;;;;;;5071708;28;20028;-36
2023/11/08 07:26:35;;;;;;;4.22;1.10;;;;;;;;;;5071559;28;20016;-36
2023/11/08 07:29:04;;;;;;;2.53;1.17;;;;;;;;;;5071564;28;20017;-37
2023/11/08 07:31:31;;;;;;;3.65;1.27;;;;;;;;;;5071487;28;20032;-37
2023/11/08 07:33:59;;;;;;;2.15;1.20;;;;;;;;;;5053535;28;20033;-37
2023/11/08 07:36:29;;;;;;;2.65;1.10;;;;;;;;;;5071682;28;20387;-36
2023/11/08 07:39:04;;;;;;;2.05;1.00;;;;;;;;;;5071441;28;20448;-36
2023/11/08 07:41:32;;;;;;;2.20;1.10;;;;;;;;;;5071256;28;20037;-36
2023/11/08 07:44:00;;;;;;;2.75;1.23;;;;;;;;;;5071340;28;20032;-36
2023/11/08 07:46:28;;;;;;;2.50;1.00;;;;;;;;;;5071259;28;20032;-37
2023/11/08 07:48:55;;;;;;;2.65;1.13;;;;;;;;;;5071432;28;20496;-37
2023/11/08 07:51:28;;;;;;;1.83;1.00;;;;;;;;;;5071168;28;20036;-36
2023/11/08 07:53:59;;;;;;;2.90;1.10;;;;;;;;;;5071366;28;20085;-36
2023/11/08 07:56:26;;;;;;;2.90;1.08;;;;;;;;;;5071096;28;20040;-36
2023/11/08 07:58:53;;;;;;;2.58;1.20;;;;;;;;;;5071357;28;20073;-37
2023/11/08 08:01:20;;;;;;;2.40;1.15;;;;;;;;;;5071156;28;20033;-36
2023/11/08 08:03:48;;;;;;;3.47;1.00;;;;;;;;;;5071144;28;20120;-36
2023/11/08 08:06:15;;;;;;;2.40;1.10;;;;;;;;;;5071152;28;20021;-36
2023/11/08 08:08:43;;;;;;;2.33;1.08;;;;;;;;;;5071166;28;20416;-37
2023/11/08 08:11:15;;;;;;;2.55;1.10;;;;;;;;;;5071189;28;20120;-36
2023/11/08 08:13:45;;;;;;;3.53;0.95;;;;;;;;;;5070733;28;20048;-37
2023/11/08 08:16:15;;;;;;;2.85;0.88;;;;;;;;;;5070429;28;20551;-37
2023/11/08 08:18:45;;;;;;;2.17;0.98;;;;;;;;;;5070871;28;20047;-37
2023/11/08 08:21:12;;;;;;;1.98;0.98;;;;;;;;;;5070891;28;20037;-37
2023/11/08 08:23:40;;;;;;;1.63;0.80;;;;;;;;;;5071089;28;20025;-37
2023/11/08 08:26:07;;;;;;;3.20;1.13;;;;;;;;;;5070915;28;20032;-37
2023/11/08 08:28:37;;;;;;;2.33;0.95;;;;;;;;;;5070953;28;20111;-37
2023/11/08 08:31:05;;;;;;;2.70;0.90;;;;;;;;;;5071006;28;20122;-36
2023/11/08 08:33:33;;;;;;;2.33;1.00;;;;;;;;;;5071787;28;20039;-37
2023/11/08 08:36:01;;;;;;;1.60;0.80;;;;;;;;;;5074288;28;20413;-36
2023/11/08 08:38:29;;;;;;;2.10;1.00;;;;;;;;;;5074485;28;20041;-37
2023/11/08 08:40:57;;;;;;;3.72;1.10;;;;;;;;;;5074149;28;20124;-37
2023/11/08 08:43:24;;;;;;;2.40;0.93;;;;;;;;;;5074366;28;20082;-36
2023/11/08 08:45:51;;;;;;;2.25;0.90;;;;;;;;;;5074325;28;20020;-37
2023/11/08 08:48:18;;;;;;;1.80;0.95;;;;;;;;;;5074303;28;20028;-37
2023/11/08 08:50:45;;;;;;;2.00;1.00;;;;;;;;;;5074251;28;20481;-37
2023/11/08 08:53:12;;;;;;;1.95;0.88;;;;;;;;;;5056234;28;20025;-36
2023/11/08 08:55:39;;;;;;;1.90;0.98;;;;;;;;;;5074191;28;20115;-37
2023/11/08 08:58:06;;;;;;;1.25;0.60;;;;;;;;;;5074138;28;20032;-36
2023/11/08 09:00:35;;;;;;;5.63;0.90;;;;;;;;;;5073995;28;20024;-37
2023/11/08 09:03:03;;;;;;;1.80;0.65;;;;;;;;;;5073823;28;20108;-37
2023/11/08 09:05:30;;;;;;;1.73;0.80;;;;;;;;;;5073844;28;20032;-37
2023/11/08 09:07:57;;;;;;;1.60;0.80;;;;;;;;;;5073752;28;20032;-37
2023/11/08 09:10:24;;;;;;;2.03;0.73;;;;;;;;;;5073945;28;20032;-37
2023/11/08 09:12:51;;;;;;;2.75;0.73;;;;;;;;;;5073727;28;20135;-37
2023/11/08 09:15:18;;;;;;;1.55;0.70;;;;;;;;;;5073805;28;20017;-37
2023/11/08 09:17:46;;;;;;;1.90;0.65;;;;;;;;;;5073748;28;20035;-37
2023/11/08 09:20:13;;;;;;;1.42;0.77;;;;;;;;;;5073537;28;20044;-36
2023/11/08 09:22:40;;;;;;;0.98;0.65;;;;;;;;;;5073837;28;20422;-36
2023/11/08 09:25:09;;;;;;;1.38;0.68;;;;;;;;;;5073563;28;20024;-37
2023/11/08 09:27:39;;;;;;;2.47;0.93;;;;;;;;;;5060062;28;20550;-37
2023/11/08 09:30:26;;;;;;;3.53;0.77;;;;;;;;;;5053533;28;20025;-37
2023/11/08 09:32:54;;;;;;;5.85;0.60;;;;;;;;;;5052772;28;20029;-37
2023/11/08 09:35:22;;;;;;;2.65;0.85;;;;;;;;;;5053004;28;20044;-37
2023/11/08 09:37:49;;;;;;;3.25;0.60;;;;;;;;;;5052794;28;20037;-37
2023/11/08 09:40:16;;;;;;;5.82;0.70;;;;;;;;;;5052928;28;20045;-37
2023/11/08 09:42:43;;;;;;;4.75;1.30;;;;;;;;;;5052775;28;20049;-37
2023/11/08 09:45:11;;;;;;;4.38;1.10;;;;;;;;;;5052897;28;20406;-37
2023/11/08 09:47:39;;;;;;;3.80;0.88;;;;;;;;;;5053173;28;20131;-37
2023/11/08 09:50:10;;;;;;;3.90;1.27;;;;;;;;;;5053053;28;20092;-37
2023/11/08 09:52:40;;;;;;;6.28;1.20;;;;;;;;;;5052968;28;20025;-37
2023/11/08 09:55:10;;;;;;;7.60;1.50;;;;;;;;;;5053019;28;20070;-37
2023/11/08 09:57:37;;;;;;;6.05;1.20;;;;;;;;;;5052706;28;20029;-37
2023/11/08 10:00:06;;;;;;;7.28;1.23;;;;;;;;;;5056290;28;20090;-37
2023/11/08 10:02:33;;;;;;;6.93;1.30;;;;;;;;;;5072702;28;20467;-37
2023/11/08 10:05:03;;;;;;;5.97;1.20;;;;;;;;;;5072692;28;20473;-37
2023/11/08 10:07:30;;;;;;;8.85;1.10;;;;;;;;;;5072521;28;20035;-37
2023/11/08 10:09:57;;;;;;;5.45;1.23;;;;;;;;;;5072194;28;20020;-37
2023/11/08 10:12:25;;;;;;;10.07;1.20;;;;;;;;;;5072010;28;20402;-37
2023/11/08 10:14:59;;;;;;;5.70;1.23;;;;;;;;;;5070964;28;20044;-37
2023/11/08 10:17:36;;;;;;;9.15;1.35;;;;;;;;;;5069654;28;20028;-38
2023/11/08 10:20:06;;;;;;;8.63;1.30;;;;;;;;;;5071067;28;20033;-37
2023/11/08 10:22:34;;;;;;;10.88;1.25;;;;;;;;;;5071497;28;20032;-37
2023/11/08 10:25:01;;;;;;;8.38;1.17;;;;;;;;;;5071756;28;20482;-37
2023/11/08 10:27:29;;;;;;;9.18;1.13;;;;;;;;;;5071542;28;20028;-37
2023/11/08 10:30:19;;;;;;;6.30;1.58;;;;;;;;;;5071724;28;20086;-37
2023/11/08 10:32:46;;;;;;;6.22;1.35;;;;;;;;;;5070570;28;20044;-37
2023/11/08 10:35:18;;;;;;;8.30;1.58;;;;;;;;;;5068980;28;20845;-37
2023/11/08 10:37:45;;;;;;;;;;;;;;;;;;5071843;28;20037;-37
2023/11/08 10:40:13;;;;;;;11.70;1.77;;;;;;;;;;5062945;28;19921;-37
2023/11/08 10:42:41;;;;;;;12.27;1.60;;;;;;;;;;5069863;28;20032;-37
2023/11/08 10:45:11;;;;;;;12.55;1.63;;;;;;;;;;5071052;28;20102;-37
2023/11/08 10:47:39;;;;;;;11.00;2.33;;;;;;;;;;5066707;28;20024;-39
2023/11/08 10:50:06;;;;;;;13.40;1.58;;;;;;;;;;5070905;28;20028;-38
2023/11/08 10:52:34;;;;;;;21.08;2.08;;;;;;;;;;5070797;28;20088;-37
2023/11/08 10:55:04;;;;;;;12.38;1.48;;;;;;;;;;5070259;28;20182;-36
2023/11/08 10:57:33;;;;;;;11.65;2.28;;;;;;;;;;5070167;28;20426;-36
2023/11/08 11:00:04;;;;;;;8.02;1.33;;;;;;;;;;5070961;28;20487;-37
2023/11/08 11:02:49;;;;;;;8.23;1.40;;;;;;;;;;5071644;28;20086;-36
2023/11/08 11:05:18;;;;;;;11.23;1.70;;;;;;;;;;5071370;28;20028;-36
2023/11/08 11:07:45;;;;;;;12.57;1.50;;;;;;;;;;5070833;28;20031;-36
2023/11/08 11:10:13;;;;;;;13.93;1.60;;;;;;;;;;5070211;28;20032;-36
2023/11/08 11:12:40;;;;;;;8.07;1.45;;;;;;;;;;5060531;28;20055;-36
2023/11/08 11:15:11;;;;;;;14.75;1.98;;;;;;;;;;5071137;28;20099;-36
2023/11/08 11:18:07;;;;;;;12.43;1.70;;;;;;;;;;5071021;28;20399;-36
2023/11/08 11:20:38;;;;;;;8.13;1.30;;;;;;;;;;5039328;28;20055;-36
2023/11/08 11:23:24;;;;;;;9.85;1.52;;;;;;;;;;5071709;28;20066;-36
2023/11/08 11:25:51;;;;;;;7.43;1.38;;;;;;;;;;5071589;28;20025;-36
2023/11/08 11:28:41;;;;;;;8.27;1.30;;;;;;;;;;5071655;28;20025;-36
2023/11/08 11:31:35;;;;;;;9.40;1.35;;;;;;;;;;5045932;28;20111;-36
2023/11/08 11:34:29;;;;;;;12.73;1.63;;;;;;;;;;5068259;28;20040;-36
2023/11/08 11:37:12;;;;;;;9.88;1.33;;;;;;;;;;5071364;28;20043;-36
2023/11/08 11:39:42;;;;;;;12.27;1.30;;;;;;;;;;5071584;28;20052;-36
2023/11/08 11:42:19;;;;;;;12.98;1.20;;;;;;;;;;5071367;28;20036;-36
2023/11/08 11:44:46;;;;;;;20.10;1.20;;;;;;;;;;5071492;28;20791;-36
2023/11/08 11:47:14;;;;;;;9.82;1.23;;;;;;;;;;5071390;28;20052;-36
2023/11/08 11:49:48;;;;;;;11.57;1.88;;;;;;;;;;5071434;28;20498;-36
2023/11/08 11:52:16;;;;;;;10.48;1.50;;;;;;;;;;5071368;28;20032;-36
2023/11/08 11:54:53;;;;;;;18.58;1.83;;;;;;;;;;5071450;28;20020;-37
2023/11/08 11:57:22;;;;;;;18.45;2.33;;;;;;;;;;5071263;28;20386;-36
2023/11/08 11:59:50;;;;;;;16.20;1.48;;;;;;;;;;5071252;28;20044;-36
2023/11/08 12:02:18;;;;;;;13.15;1.75;;;;;;;;;;5071328;28;20029;-36
2023/11/08 12:04:45;;;;;;;17.27;1.92;;;;;;;;;;5071244;28;20051;-36
2023/11/08 12:07:17;;;;;;;11.75;1.83;;;;;;;;;;5071137;28;20046;-36
2023/11/08 12:09:45;;;;;;;13.13;1.20;;;;;;;;;;5073861;28;20043;-37
2023/11/08 12:12:12;;;;;;;13.35;1.27;;;;;;;;;;5074795;28;20267;-38
2023/11/08 12:14:47;;;;;;;16.30;1.75;;;;;;;;;;5064201;28;20043;-39
2023/11/08 12:17:14;;;;;;;23.10;2.15;;;;;;;;;;5072436;28;20033;-37
2023/11/08 12:19:41;;;;;;;20.48;2.00;;;;;;;;;;5072935;28;20028;-38
2023/11/08 12:22:09;;;;;;;18.50;2.10;;;;;;;;;;5071992;28;20044;-40
2023/11/08 12:24:36;;;;;;;11.18;1.73;;;;;;;;;;5074008;28;20043;-35
2023/11/08 12:27:04;;;;;;;11.90;1.58;;;;;;;;;;5073599;28;20082;-37
2023/11/08 12:29:31;;;;;;;8.02;1.08;;;;;;;;;;5072372;28;20032;-41
2023/11/08 12:31:59;;;;;;;11.18;1.40;;;;;;;;;;5072385;28;20402;-42
2023/11/08 12:34:26;;;;;;;11.25;1.20;;;;;;;;;;5072624;28;20111;-39
2023/11/08 12:36:53;;;;;;;12.23;1.30;;;;;;;;;;5069539;28;20028;-41
2023/11/08 12:39:20;;;;;;;10.40;0.98;;;;;;;;;;5072883;28;20042;-40
2023/11/08 12:41:49;;;;;;;7.03;1.27;;;;;;;;;;5070480;28;20091;-40
2023/11/08 12:44:17;;;;;;;9.30;0.95;;;;;;;;;;5071627;28;20024;-40
2023/11/08 12:47:06;;;;;;;7.28;0.95;;;;;;;;;;5069759;28;20020;-39
2023/11/08 12:49:34;;;;;;;10.93;1.30;;;;;;;;;;5073470;28;20028;-40
2023/11/08 12:52:04;;;;;;;11.32;1.35;;;;;;;;;;5073128;28;20055;-41
2023/11/08 12:54:31;;;;;;;12.02;1.52;;;;;;;;;;5072287;28;20082;-40
2023/11/08 12:56:58;;;;;;;16.40;1.45;;;;;;;;;;5073089;28;20035;-42
2023/11/08 12:59:25;;;;;;;15.05;1.52;;;;;;;;;;5073669;28;20405;-38
2023/11/08 13:02:18;;;;;;;8.52;1.42;;;;;;;;;;5069385;28;20038;-38
2023/11/08 13:04:46;;;;;;;8.30;1.20;;;;;;;;;;5051802;28;20036;-39
2023/11/08 13:07:13;;;;;;;8.18;1.08;;;;;;;;;;5066519;28;20363;-40
2023/11/08 13:09:43;;;;;;;7.93;1.02;;;;;;;;;;5073465;28;20397;-41
2023/11/08 13:12:13;;;;;;;12.20;1.35;;;;;;;;;;5073332;28;20033;-40
2023/11/08 13:14:47;;;;;;;5.88;1.13;;;;;;;;;;5055223;28;20431;-40
2023/11/08 13:17:15;;;;;;;12.45;1.50;;;;;;;;;;5072378;28;20059;-46
2023/11/08 13:19:42;;;;;;;10.98;1.20;;;;;;;;;;5072981;28;20081;-41
2023/11/08 13:22:10;;;;;;;9.50;1.25;;;;;;;;;;5072806;28;20032;-41
2023/11/08 13:24:37;;;;;;;11.23;1.13;;;;;;;;;;5072826;28;20082;-42
2023/11/08 13:27:05;;;;;;;6.88;1.08;;;;;;;;;;5071082;28;20088;-40
2023/11/08 13:29:32;;;;;;;5.53;1.00;;;;;;;;;;5073446;28;20035;-41
2023/11/08 13:32:00;;;;;;;8.25;1.25;;;;;;;;;;5069575;28;20074;-44
2023/11/08 13:34:27;;;;;;;6.60;1.00;;;;;;;;;;5072535;28;20040;-40
2023/11/08 13:36:58;;;;;;;12.95;0.93;;;;;;;;;;5052843;28;20513;-41
2023/11/08 13:39:25;;;;;;;6.75;1.30;;;;;;;;;;5054692;28;20033;-41
2023/11/08 13:41:52;;;;;;;5.97;0.90;;;;;;;;;;5072675;28;20040;-42
2023/11/08 13:44:19;;;;;;;12.68;1.15;;;;;;;;;;5072156;28;20032;-41
2023/11/08 13:46:46;;;;;;;5.20;0.80;;;;;;;;;;5071426;28;20033;-44
2023/11/08 13:49:13;;;;;;;3.38;0.60;;;;;;;;;;5072024;28;20043;-43
2023/11/08 13:51:40;;;;;;;4.75;0.80;;;;;;;;;;5072924;28;20063;-41
2023/11/08 13:54:07;;;;;;;4.68;0.70;;;;;;;;;;5054841;28;20037;-41
2023/11/08 13:56:34;;;;;;;6.43;0.90;;;;;;;;;;5043749;28;20042;-41
2023/11/08 13:59:01;;;;;;;7.85;0.93;;;;;;;;;;5091294;28;20030;-40
2023/11/08 14:01:28;;;;;;;11.25;1.00;;;;;;;;;;5092477;28;20067;-43
2023/11/08 14:03:54;;;;;;;9.82;1.00;;;;;;;;;;5092124;28;20031;-42
2023/11/08 14:06:22;;;;;;;6.38;0.88;;;;;;;;;;5091446;28;20024;-46
2023/11/08 14:08:49;;;;;;;5.07;0.85;;;;;;;;;;5091317;28;20081;-44
2023/11/08 14:11:16;;;;;;;6.80;0.82;;;;;;;;;;5092265;28;20036;-43
2023/11/08 14:13:43;;;;;;;8.65;0.90;;;;;;;;;;5077576;28;20410;-43
2023/11/08 14:16:11;;;;;;;7.60;0.95;;;;;;;;;;5070348;28;20551;-41
2023/11/08 14:18:38;;;;;;;9.93;0.88;;;;;;;;;;5063262;28;20485;-41
2023/11/08 14:21:05;;;;;;;5.57;0.90;;;;;;;;;;5070129;28;20043;-40
2023/11/08 14:23:32;;;;;;;5.07;0.82;;;;;;;;;;5071348;28;20099;-40
2023/11/08 14:25:59;;;;;;;6.40;1.30;;;;;;;;;;5060030;28;20040;-40
2023/11/08 14:28:26;;;;;;;7.22;0.90;;;;;;;;;;5070682;28;20032;-41
2023/11/08 14:30:53;;;;;;;10.05;0.98;;;;;;;;;;5069377;28;20032;-42
2023/11/08 14:33:20;;;;;;;7.53;1.10;;;;;;;;;;5071643;28;20490;-42
2023/11/08 14:35:47;;;;;;;9.55;0.90;;;;;;;;;;5071641;28;20028;-42
2023/11/08 14:38:14;;;;;;;10.43;1.30;;;;;;;;;;5072081;28;20082;-43
2023/11/08 14:40:41;;;;;;;15.00;1.48;;;;;;;;;;5070274;28;20514;-42
2023/11/08 14:43:09;;;;;;;10.07;1.55;;;;;;;;;;5071521;28;20444;-42
2023/11/08 14:45:36;;;;;;;9.60;1.40;;;;;;;;;;5071419;28;20486;-41